Terminal Aerodrome Forecast
Issued by NWS Grand Forks, ND

Home | Current Version | Previous Version | Text Only | Print | Product List | Glossary Off
Versions: 1 2 3 4 5 6 7 8 9 10 11 12 13 14 15 16 17 18 19 20 21

000
FTUS43 KFGF 202300
TAFGFK
TAF
KGFK 202326Z 2100/2124 16012KT P6SM BKN250
     FM210600 14008KT P6SM BKN100
     FM210900 14006KT P6SM VCTS BKN060CB
     FM211200 12004KT 5SM -TSRA BKN040CB=

USA.gov is the U.S. government's official web portal to all federal, state and local government web resources and services.